createdAt,value
2018-10-02T00:00:45.124Z,100187.00
2018-10-02T00:03:15.718Z,100188.00
2018-10-02T00:05:46.234Z,100191.00
2018-10-02T00:08:21.974Z,100190.00
2018-10-02T00:10:57.517Z,100188.00
2018-10-02T00:13:33.095Z,100195.00
2018-10-02T00:16:03.569Z,100191.00
2018-10-02T00:18:34.095Z,100196.00
2018-10-02T00:21:04.622Z,100191.00
2018-10-02T00:23:35.150Z,100191.00
2018-10-02T00:26:05.834Z,100194.00
2018-10-02T00:28:36.590Z,100192.00
2018-10-02T00:31:08.742Z,100190.00
2018-10-02T00:33:39.270Z,100191.00
2018-10-02T00:36:09.799Z,100183.00
2018-10-02T00:38:40.564Z,100187.00
2018-10-02T00:41:11.141Z,100192.00
2018-10-02T00:43:41.634Z,100187.00
2018-10-02T00:46:12.318Z,100188.00
2018-10-02T00:48:42.885Z,100186.00
2018-10-02T00:51:13.426Z,100186.00
2018-10-02T00:53:44.138Z,100191.00
2018-10-02T00:56:14.659Z,100188.00
2018-10-02T00:58:45.383Z,100191.00
2018-10-02T01:01:15.958Z,100186.00
2018-10-02T01:03:46.427Z,100189.00
2018-10-02T01:06:16.938Z,100186.00
2018-10-02T01:08:47.721Z,100185.00
2018-10-02T01:11:18.282Z,100185.00
2018-10-02T01:13:48.791Z,100188.00
2018-10-02T01:16:19.478Z,100188.00
2018-10-02T01:18:49.905Z,100187.00
2018-10-02T01:21:20.429Z,100184.00
2018-10-02T01:23:51.128Z,100188.00
2018-10-02T01:26:21.625Z,100195.00
2018-10-02T01:28:52.090Z,100195.00
2018-10-02T01:31:22.571Z,100200.00
2018-10-02T01:33:53.057Z,100199.00
2018-10-02T01:36:24.154Z,100192.00
2018-10-02T01:38:54.665Z,100190.00
2018-10-02T01:41:25.381Z,100188.00
2018-10-02T01:43:56.123Z,100182.00
2018-10-02T01:46:26.601Z,100180.00
2018-10-02T01:48:57.027Z,100170.00
2018-10-02T01:51:27.695Z,100171.00
2018-10-02T01:53:58.469Z,100179.00
2018-10-02T01:56:29.200Z,100186.00
2018-10-02T01:58:59.861Z,100185.00
2018-10-02T02:01:30.404Z,100190.00
2018-10-02T02:04:00.885Z,100188.00
2018-10-02T02:06:31.666Z,100191.00
2018-10-02T02:09:02.737Z,100194.00
2018-10-02T02:11:34.101Z,100198.00
2018-10-02T02:14:04.541Z,100194.00
2018-10-02T02:16:35.290Z,100193.00
2018-10-02T02:19:05.765Z,100187.00
2018-10-02T02:21:36.700Z,100188.00
2018-10-02T02:24:07.193Z,100192.00
2018-10-02T02:26:37.735Z,100191.00
2018-10-02T02:29:08.773Z,100193.00
2018-10-02T02:31:39.307Z,100200.00
2018-10-02T02:34:09.784Z,100204.00
2018-10-02T02:36:40.311Z,100210.00
2018-10-02T02:39:10.846Z,100210.00
2018-10-02T02:41:41.369Z,100216.00
2018-10-02T02:44:12.109Z,100222.00
2018-10-02T02:46:42.656Z,100223.00
2018-10-02T02:49:18.284Z,100223.00
2018-10-02T02:51:48.841Z,100223.00
2018-10-02T02:54:19.624Z,100219.00
2018-10-02T02:56:50.139Z,100215.00
2018-10-02T02:59:20.669Z,100213.00
2018-10-02T03:01:51.381Z,100209.00
2018-10-02T03:04:21.936Z,100214.00
2018-10-02T03:06:52.692Z,100217.00
2018-10-02T03:09:23.220Z,100215.00
2018-10-02T03:11:53.705Z,100220.00
2018-10-02T03:14:24.207Z,100215.00
2018-10-02T03:16:54.797Z,100214.00
2018-10-02T03:19:25.302Z,100218.00
2018-10-02T03:21:55.861Z,100216.00
2018-10-02T03:24:26.467Z,100216.00
2018-10-02T03:26:56.946Z,100219.00
2018-10-02T03:29:27.410Z,100227.00
2018-10-02T03:31:57.998Z,100223.00
2018-10-02T03:34:28.917Z,100224.00
2018-10-02T03:37:00.084Z,100221.00
2018-10-02T03:39:30.780Z,100219.00
2018-10-02T03:42:01.677Z,100224.00
2018-10-02T03:44:32.209Z,100218.00
2018-10-02T03:47:02.735Z,100217.00
2018-10-02T03:49:33.226Z,100223.00
2018-10-02T03:52:03.742Z,100219.00
2018-10-02T03:54:34.264Z,100214.00
2018-10-02T03:57:05.041Z,100214.00
2018-10-02T03:59:35.478Z,100215.00
2018-10-02T04:02:05.969Z,100209.00
2018-10-02T04:04:36.457Z,100206.00
2018-10-02T04:07:07.473Z,100201.00
2018-10-02T04:09:41.139Z,100202.00
2018-10-02T04:12:11.638Z,100200.00
2018-10-02T04:14:42.167Z,100202.00
2018-10-02T04:17:12.658Z,100209.00
2018-10-02T04:19:43.421Z,100201.00
2018-10-02T04:22:14.238Z,100201.00
2018-10-02T04:24:44.963Z,100195.00
2018-10-02T04:27:15.524Z,100197.00
2018-10-02T04:29:46.351Z,100202.00
2018-10-02T04:32:17.086Z,100197.00
2018-10-02T04:34:47.720Z,100191.00
2018-10-02T04:37:18.322Z,100190.00
2018-10-02T04:39:48.842Z,100188.00
2018-10-02T04:42:19.369Z,100188.00
2018-10-02T04:44:50.143Z,100189.00
2018-10-02T04:47:20.971Z,100187.00
2018-10-02T04:49:51.601Z,100190.00
2018-10-02T04:52:22.297Z,100186.00
2018-10-02T04:54:52.809Z,100188.00
2018-10-02T04:57:23.478Z,100190.00
2018-10-02T04:59:54.006Z,100187.00
2018-10-02T05:02:24.918Z,100188.00
2018-10-02T05:04:55.482Z,100189.00
2018-10-02T05:07:26.239Z,100189.00
2018-10-02T05:09:56.973Z,100191.00
2018-10-02T05:12:27.737Z,100187.00
2018-10-02T05:14:58.279Z,100184.00
2018-10-02T05:17:29.383Z,100192.00
2018-10-02T05:20:00.130Z,100195.00
2018-10-02T05:22:30.618Z,100194.00
2018-10-02T05:25:01.159Z,100199.00
2018-10-02T05:27:31.690Z,100193.00
2018-10-02T05:30:02.371Z,100198.00
2018-10-02T05:32:33.033Z,100200.00
2018-10-02T05:35:03.720Z,100200.00
2018-10-02T05:37:34.552Z,100204.00
2018-10-02T05:40:05.758Z,100195.00
2018-10-02T05:42:36.290Z,100200.00
2018-10-02T05:45:08.056Z,100193.00
2018-10-02T05:47:38.595Z,100190.00
2018-10-02T05:50:09.335Z,100197.00
2018-10-02T05:52:40.270Z,100202.00
2018-10-02T05:55:11.031Z,100209.00
2018-10-02T05:57:41.603Z,100210.00
2018-10-02T06:00:12.219Z,100212.00
2018-10-02T06:02:42.886Z,100211.00
2018-10-02T06:05:13.579Z,100207.00
2018-10-02T06:07:44.676Z,100208.00
2018-10-02T06:10:15.539Z,100217.00
2018-10-02T06:12:46.285Z,100220.00
2018-10-02T06:15:16.844Z,100226.00
2018-10-02T06:17:47.397Z,100227.00
2018-10-02T06:20:17.964Z,100226.00
2018-10-02T06:22:48.718Z,100226.00
2018-10-02T06:25:19.528Z,100221.00
2018-10-02T06:27:50.274Z,100215.00
2018-10-02T06:30:21.044Z,100208.00
2018-10-02T06:32:51.786Z,100209.00
2018-10-02T06:35:22.736Z,100209.00
2018-10-02T06:37:53.518Z,100215.00
2018-10-02T06:40:24.527Z,100221.00
2018-10-02T06:42:55.045Z,100225.00
2018-10-02T06:45:26.012Z,100220.00
2018-10-02T06:47:56.570Z,100209.00
2018-10-02T06:50:27.166Z,100213.00
2018-10-02T06:52:58.150Z,100213.00
2018-10-02T06:55:28.739Z,100213.00
2018-10-02T06:57:59.367Z,100223.00
2018-10-02T07:00:30.496Z,100221.00
2018-10-02T07:03:01.403Z,100208.00
2018-10-02T07:05:32.126Z,100210.00
2018-10-02T07:08:02.769Z,100203.00
2018-10-02T07:10:33.372Z,100203.00
2018-10-02T07:13:03.831Z,100209.00
2018-10-02T07:15:34.398Z,100208.00
2018-10-02T07:18:04.914Z,100206.00
2018-10-02T07:20:35.777Z,100211.00
2018-10-02T07:23:06.476Z,100208.00
2018-10-02T07:25:37.035Z,100210.00
2018-10-02T07:28:07.646Z,100213.00
2018-10-02T07:30:38.602Z,100209.00
2018-10-02T07:33:09.456Z,100206.00
2018-10-02T07:35:40.125Z,100211.00
2018-10-02T07:38:10.638Z,100214.00
2018-10-02T07:40:41.182Z,100207.00
2018-10-02T07:43:11.666Z,100206.00
2018-10-02T07:45:42.278Z,100207.00
2018-10-02T07:48:13.162Z,100208.00
2018-10-02T07:50:44.189Z,100208.00
2018-10-02T07:53:15.132Z,100202.00
2018-10-02T07:55:45.683Z,100208.00
2018-10-02T07:58:16.480Z,100204.00
2018-10-02T08:00:47.250Z,100212.00
2018-10-02T08:03:17.754Z,100216.00
2018-10-02T08:05:48.557Z,100215.00
2018-10-02T08:08:19.258Z,100214.00
2018-10-02T08:10:50.129Z,100210.00
2018-10-02T08:13:20.846Z,100201.00
2018-10-02T08:15:51.643Z,100205.00
2018-10-02T08:18:22.174Z,100209.00
2018-10-02T08:20:52.724Z,100209.00
2018-10-02T08:23:23.473Z,100212.00
2018-10-02T08:25:54.302Z,100212.00
2018-10-02T08:28:24.842Z,100215.00
2018-10-02T08:30:55.674Z,100219.00
2018-10-02T08:33:26.245Z,100218.00
2018-10-02T08:35:57.127Z,100226.00
2018-10-02T08:38:27.792Z,100223.00
2018-10-02T08:40:58.581Z,100225.00
2018-10-02T08:43:29.500Z,100215.00
2018-10-02T08:46:00.292Z,100218.00
2018-10-02T08:48:31.049Z,100218.00
2018-10-02T08:51:01.776Z,100219.00
2018-10-02T08:53:32.590Z,100225.00
2018-10-02T08:56:03.423Z,100225.00
2018-10-02T08:58:34.017Z,100225.00
2018-10-02T09:01:04.926Z,100224.00
2018-10-02T09:03:35.670Z,100221.00
2018-10-02T09:06:06.623Z,100214.00
2018-10-02T09:08:37.189Z,100212.00
2018-10-02T09:11:07.854Z,100206.00
2018-10-02T09:13:38.454Z,100204.00
2018-10-02T09:16:09.508Z,100214.00
2018-10-02T09:18:40.429Z,100219.00
2018-10-02T09:21:11.342Z,100215.00
2018-10-02T09:23:42.155Z,100212.00
2018-10-02T09:26:13.160Z,100207.00
2018-10-02T09:28:43.931Z,100202.00
2018-10-02T09:31:19.862Z,100194.00
2018-10-02T09:33:56.090Z,100195.00
2018-10-02T09:36:32.295Z,100197.00
2018-10-02T09:39:08.740Z,100197.00
2018-10-02T09:41:44.469Z,100193.00
2018-10-02T09:44:15.405Z,100198.00
2018-10-02T09:46:46.027Z,100199.00
2018-10-02T09:49:16.911Z,100192.00
2018-10-02T09:51:47.710Z,100192.00
2018-10-02T09:54:18.465Z,100189.00
2018-10-02T09:56:49.280Z,100185.00
2018-10-02T09:59:20.066Z,100179.00
2018-10-02T10:01:56.085Z,100180.00
2018-10-02T10:04:27.032Z,100189.00
2018-10-02T10:06:57.918Z,100194.00
2018-10-02T10:09:28.586Z,100186.00
2018-10-02T10:11:59.299Z,100182.00
2018-10-02T10:14:30.125Z,100187.00
2018-10-02T10:17:00.871Z,100188.00
2018-10-02T10:19:31.685Z,100183.00
2018-10-02T10:22:02.327Z,100173.00
2018-10-02T10:24:32.972Z,100184.00
2018-10-02T10:27:03.550Z,100186.00
2018-10-02T10:29:34.200Z,100185.00
2018-10-02T10:32:04.899Z,100182.00
2018-10-02T10:34:35.623Z,100173.00
2018-10-02T10:37:06.674Z,100172.00
2018-10-02T10:39:37.517Z,100168.00
2018-10-02T10:42:08.619Z,100158.00
2018-10-02T10:44:39.606Z,100147.00
2018-10-02T10:47:10.429Z,100148.00
2018-10-02T10:49:41.116Z,100140.00
2018-10-02T10:52:11.951Z,100140.00
2018-10-02T10:54:58.449Z,100134.00
2018-10-02T10:57:29.350Z,100133.00
2018-10-02T11:00:00.225Z,100128.00
2018-10-02T11:02:30.915Z,100133.00
2018-10-02T11:05:01.783Z,100129.00
2018-10-02T11:07:32.548Z,100137.00
2018-10-02T11:10:03.229Z,100136.00
2018-10-02T11:12:33.895Z,100129.00
2018-10-02T11:15:05.211Z,100137.00
2018-10-02T11:17:36.286Z,100124.00
2018-10-02T11:20:06.991Z,100125.00
2018-10-02T11:22:37.894Z,100121.00
2018-10-02T11:25:08.622Z,100122.00
2018-10-02T11:27:39.712Z,100124.00
2018-10-02T11:30:10.564Z,100130.00
2018-10-02T11:32:41.211Z,100132.00
2018-10-02T11:35:11.814Z,100124.00
2018-10-02T11:37:42.687Z,100120.00
2018-10-02T11:40:13.403Z,100127.00
2018-10-02T11:42:44.293Z,100132.00
2018-10-02T11:45:15.011Z,100127.00
2018-10-02T11:47:45.657Z,100118.00
2018-10-02T11:50:16.522Z,100120.00
2018-10-02T11:52:47.559Z,100118.00
2018-10-02T11:55:18.273Z,100117.00
2018-10-02T11:57:49.170Z,100117.00
2018-10-02T12:00:20.077Z,100108.00
2018-10-02T12:02:51.313Z,100102.00
2018-10-02T12:05:22.228Z,100101.00
2018-10-02T12:07:52.875Z,100099.00
2018-10-02T12:10:23.894Z,100102.00
2018-10-02T12:12:54.957Z,100096.00
2018-10-02T12:15:25.777Z,100095.00
2018-10-02T12:17:56.453Z,100100.00
2018-10-02T12:20:27.047Z,100098.00
2018-10-02T12:22:57.778Z,100099.00
2018-10-02T12:25:28.579Z,100098.00
2018-10-02T12:27:59.203Z,100091.00
2018-10-02T12:30:30.202Z,100095.00
2018-10-02T12:33:00.879Z,100082.00
2018-10-02T12:35:31.744Z,100084.00
2018-10-02T12:38:02.453Z,100075.00
2018-10-02T12:40:33.618Z,100074.00
2018-10-02T12:43:04.591Z,100073.00
2018-10-02T12:45:35.393Z,100070.00
2018-10-02T12:48:08.009Z,100074.00
2018-10-02T12:50:38.838Z,100075.00
2018-10-02T12:53:09.656Z,100077.00
2018-10-02T12:55:40.644Z,100076.00
2018-10-02T12:58:11.626Z,100073.00
2018-10-02T13:00:42.523Z,100079.00
2018-10-02T13:03:13.274Z,100077.00
2018-10-02T13:05:44.011Z,100071.00
2018-10-02T13:08:14.634Z,100068.00
2018-10-02T13:10:45.456Z,100064.00
2018-10-02T13:13:16.487Z,100059.00
2018-10-02T13:15:47.143Z,100056.00
2018-10-02T13:18:17.853Z,100057.00
2018-10-02T13:20:48.485Z,100056.00
2018-10-02T13:23:19.309Z,100059.00
2018-10-02T13:25:50.161Z,100049.00
2018-10-02T13:28:21.488Z,100058.00
2018-10-02T13:30:52.293Z,100055.00
2018-10-02T13:33:23.222Z,100056.00
2018-10-02T13:35:54.384Z,100058.00
2018-10-02T13:38:25.123Z,100054.00
2018-10-02T13:40:56.116Z,100050.00
2018-10-02T13:43:26.944Z,100048.00
2018-10-02T13:45:57.715Z,100044.00
2018-10-02T13:48:29.179Z,100038.00
2018-10-02T13:51:00.330Z,100038.00
2018-10-02T13:53:31.566Z,100037.00
2018-10-02T13:56:03.158Z,100034.00
2018-10-02T13:58:34.273Z,100032.00
2018-10-02T14:01:05.936Z,100031.00
2018-10-02T14:03:37.126Z,100035.00
2018-10-02T14:06:07.791Z,100045.00
2018-10-02T14:08:38.466Z,100047.00
2018-10-02T14:11:09.177Z,100043.00
2018-10-02T14:13:40.208Z,100041.00
2018-10-02T14:16:11.802Z,100047.00
2018-10-02T14:18:42.479Z,100043.00
2018-10-02T14:21:13.221Z,100043.00
2018-10-02T14:23:44.569Z,100040.00
2018-10-02T14:26:15.349Z,100043.00
2018-10-02T14:28:46.454Z,100037.00
2018-10-02T14:31:17.411Z,100041.00
2018-10-02T14:33:48.163Z,100033.00
2018-10-02T14:36:18.823Z,100032.00
2018-10-02T14:38:49.898Z,100031.00
2018-10-02T14:41:20.875Z,100034.00
2018-10-02T14:43:51.762Z,100036.00
2018-10-02T14:46:23.215Z,100037.00
2018-10-02T14:48:53.980Z,100039.00
2018-10-02T14:51:25.079Z,100039.00
2018-10-02T14:53:55.980Z,100042.00
2018-10-02T14:56:26.933Z,100050.00
2018-10-02T14:58:57.936Z,100050.00
2018-10-02T15:01:28.518Z,100046.00
2018-10-02T15:03:59.170Z,100049.00
2018-10-02T15:06:30.164Z,100042.00
2018-10-02T15:09:01.179Z,100034.00
2018-10-02T15:11:32.108Z,100044.00
2018-10-02T15:14:03.032Z,100049.00
2018-10-02T15:16:34.274Z,100051.00
2018-10-02T15:19:05.010Z,100052.00
2018-10-02T15:21:35.513Z,100054.00
2018-10-02T15:24:06.365Z,100051.00
2018-10-02T15:26:37.185Z,100058.00
2018-10-02T15:29:08.155Z,100045.00
2018-10-02T15:31:39.096Z,100039.00
2018-10-02T15:34:10.175Z,100033.00
2018-10-02T15:36:40.912Z,100026.00
2018-10-02T15:39:12.193Z,100022.00
2018-10-02T15:41:43.279Z,100030.00
2018-10-02T15:44:13.951Z,100028.00
2018-10-02T15:46:44.738Z,100025.00
2018-10-02T15:49:15.859Z,100030.00
2018-10-02T15:51:46.847Z,100029.00
2018-10-02T15:54:17.704Z,100026.00
2018-10-02T15:56:48.540Z,100028.00
2018-10-02T15:59:19.127Z,100035.00
2018-10-02T16:01:50.056Z,100044.00
2018-10-02T16:04:24.183Z,100052.00
2018-10-02T16:06:57.925Z,100045.00
2018-10-02T16:09:28.780Z,100035.00
2018-10-02T16:12:00.311Z,100030.00
2018-10-02T16:14:31.347Z,100035.00
2018-10-02T16:17:02.383Z,100038.00
2018-10-02T16:19:33.338Z,100037.00
2018-10-02T16:22:04.112Z,100030.00
2018-10-02T16:24:34.934Z,100035.00
2018-10-02T16:27:05.859Z,100030.00
2018-10-02T16:29:36.577Z,100025.00
2018-10-02T16:32:07.561Z,100007.00
2018-10-02T16:34:48.981Z,100018.00
2018-10-02T16:37:09.705Z,100011.00
2018-10-02T16:39:40.242Z,100006.00
2018-10-02T16:42:10.889Z,100013.00
2018-10-02T16:44:41.452Z,100018.00
2018-10-02T16:47:12.299Z,100020.00
2018-10-02T16:49:43.329Z,100010.00
2018-10-02T16:52:13.858Z,100015.00
2018-10-02T16:54:44.430Z,100019.00
2018-10-02T16:57:15.239Z,100028.00
2018-10-02T16:59:46.014Z,100025.00
2018-10-02T17:02:17.449Z,100030.00
2018-10-02T17:04:48.071Z,100027.00
2018-10-02T17:07:18.618Z,100030.00
2018-10-02T17:09:49.264Z,100031.00
2018-10-02T17:12:20.069Z,100031.00
2018-10-02T17:14:51.017Z,100038.00
2018-10-02T17:17:21.690Z,100034.00
2018-10-02T17:19:52.342Z,100039.00
2018-10-02T17:22:24.170Z,100047.00
2018-10-02T17:24:54.874Z,100048.00
2018-10-02T17:27:25.498Z,100044.00
2018-10-02T17:29:56.222Z,100046.00
2018-10-02T17:32:27.010Z,100054.00
2018-10-02T17:34:57.913Z,100055.00
2018-10-02T17:37:28.828Z,100058.00
2018-10-02T17:39:59.773Z,100065.00
2018-10-02T17:42:30.801Z,100069.00
2018-10-02T17:45:01.823Z,100073.00
2018-10-02T17:47:32.942Z,100083.00
2018-10-02T17:50:03.838Z,100081.00
2018-10-02T17:52:34.462Z,100087.00
2018-10-02T17:55:05.131Z,100089.00
2018-10-02T17:57:35.758Z,100088.00
2018-10-02T18:00:06.858Z,100090.00
2018-10-02T18:02:37.407Z,100098.00
2018-10-02T18:05:08.062Z,100095.00
2018-10-02T18:07:38.971Z,100106.00
2018-10-02T18:10:09.816Z,100108.00
2018-10-02T18:12:40.426Z,100097.00
2018-10-02T18:15:10.987Z,100104.00
2018-10-02T18:17:41.526Z,100107.00
2018-10-02T18:20:12.265Z,100112.00
2018-10-02T18:22:43.144Z,100115.00
2018-10-02T18:25:13.860Z,100110.00
2018-10-02T18:27:44.438Z,100107.00
2018-10-02T18:30:15.170Z,100110.00
2018-10-02T18:32:45.824Z,100112.00
2018-10-02T18:35:16.607Z,100119.00
2018-10-02T18:37:47.421Z,100120.00
2018-10-02T18:40:18.106Z,100121.00
2018-10-02T18:42:48.727Z,100123.00
2018-10-02T18:45:19.826Z,100130.00
2018-10-02T18:47:50.426Z,100131.00
2018-10-02T18:50:21.329Z,100139.00
2018-10-02T18:52:51.875Z,100135.00
2018-10-02T18:55:22.484Z,100132.00
2018-10-02T18:57:53.067Z,100136.00
2018-10-02T19:00:24.746Z,100133.00
2018-10-02T19:02:55.670Z,100132.00
2018-10-02T19:05:26.520Z,100134.00
2018-10-02T19:07:58.889Z,100131.00
2018-10-02T19:10:29.526Z,100129.00
2018-10-02T19:13:00.355Z,100126.00
2018-10-02T19:15:36.358Z,100130.00
2018-10-02T19:18:07.011Z,100132.00
2018-10-02T19:20:43.171Z,100134.00
2018-10-02T19:23:13.801Z,100126.00
2018-10-02T19:25:49.459Z,100130.00
2018-10-02T19:28:20.318Z,100134.00
2018-10-02T19:30:56.262Z,100134.00
2018-10-02T19:33:27.107Z,100130.00
2018-10-02T19:35:57.758Z,100134.00
2018-10-02T19:38:33.658Z,100133.00
2018-10-02T19:41:04.343Z,100130.00
2018-10-02T19:43:35.235Z,100128.00
2018-10-02T19:47:10.518Z,100128.00
2018-10-02T19:49:41.866Z,100124.00
2018-10-02T19:52:15.538Z,100132.00
2018-10-02T19:54:47.255Z,100129.00
2018-10-02T19:57:19.339Z,100118.00
2018-10-02T19:59:50.233Z,100122.00
2018-10-02T20:02:21.176Z,100125.00
2018-10-02T20:04:51.744Z,100124.00
2018-10-02T20:07:22.444Z,100124.00
2018-10-02T20:09:53.322Z,100118.00
2018-10-02T20:12:24.226Z,100116.00
2018-10-02T20:14:54.822Z,100123.00
2018-10-02T20:17:25.489Z,100110.00
2018-10-02T20:19:56.134Z,100106.00
2018-10-02T20:22:26.817Z,100104.00
2018-10-02T20:24:57.706Z,100107.00
2018-10-02T20:27:29.011Z,100101.00
2018-10-02T20:29:59.870Z,100102.00
2018-10-02T20:32:30.517Z,100096.00
2018-10-02T20:35:01.745Z,100099.00
2018-10-02T20:37:32.327Z,100095.00
2018-10-02T20:40:03.145Z,100094.00
2018-10-02T20:42:34.919Z,100085.00
2018-10-02T20:45:05.465Z,100088.00
2018-10-02T20:47:36.335Z,100095.00
2018-10-02T20:50:07.414Z,100108.00
2018-10-02T20:52:38.215Z,100106.00
2018-10-02T20:55:09.111Z,100108.00
2018-10-02T20:57:40.214Z,100107.00
2018-10-02T21:00:10.819Z,100104.00
2018-10-02T21:02:41.804Z,100098.00
2018-10-02T21:05:12.475Z,100104.00
2018-10-02T21:07:43.328Z,100105.00
2018-10-02T21:10:14.555Z,100111.00
2018-10-02T21:12:45.924Z,100108.00
2018-10-02T21:15:16.607Z,100115.00
2018-10-02T21:17:47.365Z,100115.00
2018-10-02T21:20:18.291Z,100114.00
2018-10-02T21:22:48.940Z,100106.00
2018-10-02T21:25:19.504Z,100106.00
2018-10-02T21:27:50.201Z,100117.00
2018-10-02T21:30:20.812Z,100119.00
2018-10-02T21:32:51.595Z,100115.00
2018-10-02T21:35:22.177Z,100124.00
2018-10-02T21:37:53.375Z,100123.00
2018-10-02T21:40:24.169Z,100120.00
2018-10-02T21:42:55.283Z,100117.00
2018-10-02T21:45:26.026Z,100118.00
2018-10-02T21:47:56.809Z,100112.00
2018-10-02T21:50:27.727Z,100105.00
2018-10-02T21:52:58.354Z,100107.00
2018-10-02T21:55:28.854Z,100101.00
2018-10-02T21:57:59.800Z,100098.00
2018-10-02T22:00:32.841Z,100099.00
2018-10-02T22:03:03.472Z,100100.00
2018-10-02T22:05:34.026Z,100096.00
2018-10-02T22:08:04.670Z,100097.00
2018-10-02T22:10:35.249Z,100088.00
2018-10-02T22:13:06.644Z,100090.00
2018-10-02T22:15:37.488Z,100095.00
2018-10-02T22:18:08.391Z,100106.00
2018-10-02T22:20:39.589Z,100102.00
2018-10-02T22:23:10.553Z,100111.00
2018-10-02T22:25:41.728Z,100114.00
2018-10-02T22:28:12.643Z,100109.00
2018-10-02T22:30:43.597Z,100111.00
2018-10-02T22:33:14.546Z,100115.00
2018-10-02T22:35:45.597Z,100111.00
2018-10-02T22:38:16.461Z,100095.00
2018-10-02T22:40:47.553Z,100095.00
2018-10-02T22:43:18.646Z,100090.00
2018-10-02T22:45:49.552Z,100084.00
2018-10-02T22:48:20.426Z,100087.00
2018-10-02T22:50:51.563Z,100086.00
2018-10-02T22:53:22.506Z,100093.00
2018-10-02T22:55:53.410Z,100101.00
2018-10-02T22:58:24.289Z,100095.00
2018-10-02T23:00:55.189Z,100089.00
2018-10-02T23:03:26.110Z,100085.00
2018-10-02T23:05:57.298Z,100092.00
2018-10-02T23:08:28.110Z,100092.00
2018-10-02T23:10:59.105Z,100096.00
2018-10-02T23:13:29.949Z,100098.00
2018-10-02T23:16:01.023Z,100096.00
2018-10-02T23:18:32.204Z,100086.00
2018-10-02T23:21:03.102Z,100087.00
2018-10-02T23:23:34.309Z,100090.00
2018-10-02T23:26:05.287Z,100102.00
2018-10-02T23:28:36.433Z,100094.00
2018-10-02T23:31:07.635Z,100093.00
2018-10-02T23:33:38.606Z,100097.00
2018-10-02T23:36:09.729Z,100089.00
2018-10-02T23:38:40.763Z,100093.00
2018-10-02T23:41:11.756Z,100098.00
2018-10-02T23:43:42.690Z,100101.00
2018-10-02T23:46:13.621Z,100107.00
2018-10-02T23:48:44.601Z,100102.00
2018-10-02T23:51:15.508Z,100102.00
2018-10-02T23:53:46.693Z,100102.00
2018-10-02T23:56:17.877Z,100102.00
2018-10-02T23:58:48.815Z,100103.00
